createdAt,value
2022-10-21T00:01:56.599Z,16.50
2022-10-21T00:04:58.478Z,16.50
2022-10-21T00:08:00.408Z,16.50
2022-10-21T00:11:05.956Z,16.40
2022-10-21T00:14:08.266Z,16.40
2022-10-21T00:17:09.955Z,16.50
2022-10-21T00:20:13.293Z,16.50
2022-10-21T00:23:14.998Z,16.40
2022-10-21T00:26:17.863Z,16.40
2022-10-21T00:29:19.743Z,16.40
2022-10-21T00:32:21.508Z,16.40
2022-10-21T00:35:23.383Z,16.40
2022-10-21T00:38:25.710Z,16.40
2022-10-21T00:41:28.223Z,16.40
2022-10-21T00:44:31.405Z,16.40
2022-10-21T00:48:01.537Z,16.40
2022-10-21T00:51:08.215Z,16.40
2022-10-21T00:54:10.580Z,16.40
2022-10-21T00:57:12.728Z,16.30
2022-10-21T01:00:14.928Z,16.30
2022-10-21T01:03:16.847Z,16.30
2022-10-21T01:06:21.823Z,16.30
2022-10-21T01:09:25.989Z,16.30
2022-10-21T01:13:00.698Z,16.30
2022-10-21T01:16:17.759Z,16.10
2022-10-21T01:19:39.719Z,16.10
2022-10-21T01:22:51.613Z,16.10
2022-10-21T01:26:15.073Z,16.10
2022-10-21T01:29:38.187Z,16.10
2022-10-21T01:33:18.138Z,16.00
2022-10-21T01:36:50.367Z,16.00
2022-10-21T01:40:04.722Z,16.00
2022-10-21T01:43:48.065Z,15.90
2022-10-21T01:47:00.403Z,16.00
2022-10-21T01:50:30.300Z,16.00
2022-10-21T01:53:40.635Z,16.00
2022-10-21T01:56:44.698Z,16.00
2022-10-21T01:59:47.890Z,16.00
2022-10-21T02:02:50.192Z,16.00
2022-10-21T02:05:51.997Z,16.00
2022-10-21T02:08:54.019Z,15.90
2022-10-21T02:12:00.530Z,15.90
2022-10-21T02:15:08.420Z,15.90
2022-10-21T02:18:20.016Z,15.90
2022-10-21T02:21:24.427Z,15.80
2022-10-21T02:24:49.519Z,15.80
2022-10-21T02:27:52.384Z,15.80
2022-10-21T02:31:17.795Z,15.80
2022-10-21T02:34:44.620Z,15.80
2022-10-21T02:37:55.795Z,15.80
2022-10-21T02:41:01.546Z,15.80
2022-10-21T02:44:04.700Z,15.80
2022-10-21T02:47:06.662Z,15.70
2022-10-21T02:50:08.682Z,15.70
2022-10-21T02:53:12.710Z,15.70
2022-10-21T02:56:14.684Z,15.70
2022-10-21T02:59:16.373Z,15.60
2022-10-21T03:02:18.115Z,15.60
2022-10-21T03:05:19.964Z,15.60
2022-10-21T03:08:22.044Z,15.60
2022-10-21T03:11:23.880Z,15.60
2022-10-21T03:14:25.867Z,15.60
2022-10-21T03:17:27.567Z,15.70
2022-10-21T03:20:29.301Z,15.70
2022-10-21T03:23:31.148Z,15.60
2022-10-21T03:26:32.843Z,15.60
2022-10-21T03:29:34.504Z,15.60
2022-10-21T03:32:36.769Z,15.60
2022-10-21T03:35:38.773Z,15.60
2022-10-21T03:38:40.475Z,15.60
2022-10-21T03:41:42.207Z,15.60
2022-10-21T03:44:43.907Z,15.60
2022-10-21T03:47:47.175Z,15.60
2022-10-21T03:50:48.898Z,15.60
2022-10-21T03:53:50.597Z,15.70
2022-10-21T03:56:52.397Z,15.70
2022-10-21T03:59:54.049Z,15.70
2022-10-21T04:02:55.893Z,15.60
2022-10-21T04:05:57.944Z,15.70
2022-10-21T04:08:59.831Z,15.60
2022-10-21T04:12:01.843Z,15.60
2022-10-21T04:15:06.340Z,15.60
2022-10-21T04:18:08.183Z,15.60
2022-10-21T04:21:10.308Z,15.70
2022-10-21T04:24:12.579Z,15.70
2022-10-21T04:27:14.566Z,15.80
2022-10-21T04:30:16.303Z,15.80
2022-10-21T04:33:18.112Z,15.70
2022-10-21T04:36:19.891Z,15.70
2022-10-21T04:39:21.899Z,15.70
2022-10-21T04:42:24.081Z,15.60
2022-10-21T04:45:26.269Z,15.60
2022-10-21T04:48:27.976Z,15.70
2022-10-21T04:51:29.727Z,15.70
2022-10-21T04:54:31.484Z,15.70
2022-10-21T04:57:33.281Z,15.70
2022-10-21T05:00:35.394Z,15.60
2022-10-21T05:03:37.350Z,15.70
2022-10-21T05:06:39.329Z,15.70
2022-10-21T05:09:41.066Z,15.60
2022-10-21T05:12:43.288Z,15.60
2022-10-21T05:15:45.601Z,15.70
2022-10-21T05:18:47.706Z,15.70
2022-10-21T05:21:49.583Z,15.60
2022-10-21T05:24:51.319Z,15.70
2022-10-21T05:27:52.973Z,15.70
2022-10-21T05:30:54.813Z,15.70
2022-10-21T05:33:57.394Z,15.70
2022-10-21T05:36:59.298Z,15.70
2022-10-21T05:40:01.062Z,15.70
2022-10-21T05:43:03.094Z,15.60
2022-10-21T05:46:05.541Z,15.70
2022-10-21T05:49:07.666Z,15.70
2022-10-21T05:52:09.735Z,15.70
2022-10-21T05:55:11.735Z,15.70
2022-10-21T05:58:13.519Z,15.70
2022-10-21T06:01:15.604Z,15.70
2022-10-21T06:04:17.641Z,15.60
2022-10-21T06:07:19.699Z,15.70
2022-10-21T06:10:25.486Z,15.70
2022-10-21T06:13:31.035Z,15.80
2022-10-21T06:16:35.329Z,15.80
2022-10-21T06:19:37.163Z,15.80
2022-10-21T06:22:38.908Z,15.90
2022-10-21T06:25:40.808Z,15.90
2022-10-21T06:28:44.414Z,15.90
2022-10-21T06:31:46.435Z,15.90
2022-10-21T06:34:48.281Z,15.90
2022-10-21T06:37:50.271Z,15.90
2022-10-21T06:40:52.949Z,16.00
2022-10-21T06:43:54.770Z,16.00
2022-10-21T06:46:56.560Z,16.00
2022-10-21T06:50:02.962Z,16.00
2022-10-21T06:53:05.204Z,16.00
2022-10-21T06:56:13.537Z,16.00
2022-10-21T06:59:15.350Z,16.00
2022-10-21T07:02:17.056Z,16.00
2022-10-21T07:05:19.029Z,15.90
2022-10-21T07:08:22.579Z,16.00
2022-10-21T07:11:36.774Z,16.00
2022-10-21T07:14:39.528Z,16.00
2022-10-21T07:17:41.677Z,15.90
2022-10-21T07:20:43.896Z,16.00
2022-10-21T07:23:47.791Z,15.90
2022-10-21T07:26:49.808Z,15.90
2022-10-21T07:29:52.043Z,16.00
2022-10-21T07:32:53.884Z,15.90
2022-10-21T07:36:15.151Z,15.90
2022-10-21T07:39:17.922Z,15.90
2022-10-21T07:42:20.216Z,15.90
2022-10-21T07:45:21.966Z,16.00
2022-10-21T07:48:23.901Z,16.00
2022-10-21T07:51:30.306Z,16.00
2022-10-21T07:54:33.101Z,16.00
2022-10-21T07:57:34.776Z,16.00
2022-10-21T08:00:36.856Z,16.00
2022-10-21T08:03:39.370Z,16.00
2022-10-21T08:06:41.831Z,16.00
2022-10-21T08:09:43.813Z,16.00
2022-10-21T08:12:45.757Z,16.00
2022-10-21T08:15:50.535Z,16.00
2022-10-21T08:18:52.960Z,15.90
2022-10-21T08:21:56.163Z,16.00
2022-10-21T08:24:57.854Z,15.90
2022-10-21T08:27:59.742Z,16.00
2022-10-21T08:31:11.538Z,15.90
2022-10-21T08:34:13.263Z,15.90
2022-10-21T08:37:15.261Z,16.00
2022-10-21T08:40:18.392Z,15.90
2022-10-21T08:43:39.659Z,16.00
2022-10-21T08:46:53.696Z,16.00
2022-10-21T08:50:14.670Z,16.00
2022-10-21T08:53:47.328Z,16.10
2022-10-21T08:56:54.467Z,16.00
2022-10-21T08:59:56.523Z,16.00
2022-10-21T09:03:20.328Z,16.10
2022-10-21T09:06:29.411Z,16.10
2022-10-21T09:09:40.844Z,16.10
2022-10-21T09:13:04.512Z,16.00
2022-10-21T09:16:21.671Z,16.10
2022-10-21T09:19:45.949Z,16.10
2022-10-21T09:22:56.883Z,16.20
2022-10-21T09:26:07.722Z,16.20
2022-10-21T09:29:34.967Z,16.20
2022-10-21T09:32:41.770Z,16.30
2022-10-21T09:35:48.927Z,16.30
2022-10-21T09:39:18.636Z,16.40
2022-10-21T09:42:42.325Z,16.40
2022-10-21T09:45:45.241Z,16.40
2022-10-21T09:52:13.426Z,16.50
2022-10-21T09:55:16.377Z,16.60
2022-10-21T09:59:07.645Z,16.60
2022-10-21T10:02:15.866Z,16.70
2022-10-21T10:05:49.240Z,16.70
2022-10-21T10:08:51.265Z,16.80
2022-10-21T10:12:03.755Z,16.80
2022-10-21T10:15:33.116Z,16.90
2022-10-21T10:18:35.191Z,17.00
2022-10-21T10:21:37.164Z,17.10
2022-10-21T10:24:42.816Z,17.10
2022-10-21T10:28:10.588Z,17.10
2022-10-21T10:31:12.440Z,17.30
2022-10-21T10:34:33.775Z,17.30
2022-10-21T10:37:37.591Z,17.40
2022-10-21T10:40:42.209Z,17.50
2022-10-21T10:43:53.507Z,17.60
2022-10-21T10:47:01.026Z,17.70
2022-10-21T10:50:03.448Z,17.80
2022-10-21T10:53:21.730Z,18.00
2022-10-21T10:56:35.884Z,18.10
2022-10-21T10:59:45.157Z,18.20
2022-10-21T11:02:49.793Z,18.40
2022-10-21T11:05:54.018Z,18.50
2022-10-21T11:08:58.722Z,18.70
2022-10-21T11:12:03.299Z,18.80
2022-10-21T11:15:14.231Z,18.90
2022-10-21T11:18:34.372Z,19.00
2022-10-21T11:22:00.684Z,19.00
2022-10-21T11:25:13.770Z,19.10
2022-10-21T11:28:37.931Z,19.20
2022-10-21T11:32:11.255Z,19.30
2022-10-21T11:35:29.528Z,19.30
2022-10-21T11:38:40.554Z,19.40
2022-10-21T11:42:00.471Z,19.40
2022-10-21T11:45:24.188Z,19.40
2022-10-21T11:48:49.986Z,19.50
2022-10-21T11:52:17.674Z,19.60
2022-10-21T11:55:32.627Z,19.70
2022-10-21T11:58:54.133Z,19.70
2022-10-21T12:02:04.440Z,19.80
2022-10-21T12:05:08.955Z,19.90
2022-10-21T12:08:27.533Z,19.90
2022-10-21T12:11:38.046Z,20.00
2022-10-21T12:14:56.341Z,20.00
2022-10-21T12:17:58.618Z,20.10
2022-10-21T12:21:00.960Z,20.10
2022-10-21T12:24:24.689Z,20.10
2022-10-21T12:27:42.090Z,20.00
2022-10-21T12:30:56.471Z,20.00
2022-10-21T12:33:58.751Z,20.00
2022-10-21T12:37:02.130Z,20.00
2022-10-21T12:40:22.575Z,20.00
2022-10-21T12:43:28.746Z,20.00
2022-10-21T12:46:41.265Z,20.10
2022-10-21T12:49:43.850Z,20.10
2022-10-21T12:52:47.353Z,20.10
2022-10-21T12:55:52.884Z,20.10
2022-10-21T12:59:04.489Z,20.10
2022-10-21T13:02:06.765Z,20.10
2022-10-21T13:05:08.452Z,20.10
2022-10-21T13:08:28.288Z,20.10
2022-10-21T13:11:37.312Z,20.10
2022-10-21T13:14:49.497Z,20.10
2022-10-21T13:18:00.143Z,20.10
2022-10-21T13:21:02.625Z,20.20
2022-10-21T13:24:15.504Z,20.20
2022-10-21T13:30:38.023Z,20.10
2022-10-21T13:33:53.557Z,20.10
2022-10-21T13:36:58.754Z,20.10
2022-10-21T13:40:14.577Z,20.10
2022-10-21T13:43:28.661Z,20.20
2022-10-21T13:46:40.683Z,20.20
2022-10-21T13:49:52.531Z,20.20
2022-10-21T13:52:55.410Z,20.10
2022-10-21T13:56:08.767Z,20.10
2022-10-21T13:59:36.994Z,20.10
2022-10-21T14:03:05.501Z,20.10
2022-10-21T14:06:09.728Z,20.00
2022-10-21T14:09:23.704Z,20.00
2022-10-21T14:12:41.721Z,20.00
2022-10-21T14:15:45.374Z,20.00
2022-10-21T14:18:47.967Z,19.90
2022-10-21T14:21:53.835Z,19.80
2022-10-21T14:25:02.134Z,19.80
2022-10-21T14:28:05.076Z,19.70
2022-10-21T14:31:11.845Z,19.70
2022-10-21T14:34:29.231Z,19.70
2022-10-21T14:37:37.046Z,19.60
2022-10-21T14:40:41.638Z,19.60
2022-10-21T14:43:45.361Z,19.60
2022-10-21T14:46:49.833Z,19.50
2022-10-21T14:49:54.194Z,19.60
2022-10-21T14:52:56.003Z,19.60
2022-10-21T14:56:00.534Z,19.50
2022-10-21T14:59:19.524Z,19.50
2022-10-21T15:02:26.560Z,19.50
2022-10-21T15:05:34.271Z,19.50
2022-10-21T15:08:36.487Z,19.50
2022-10-21T15:11:46.933Z,19.50
2022-10-21T15:18:20.358Z,19.40
2022-10-21T15:21:49.638Z,19.30
2022-10-21T15:24:53.070Z,19.30
2022-10-21T15:27:57.187Z,19.30
2022-10-21T15:30:59.708Z,19.30
2022-10-21T15:34:08.994Z,19.20
2022-10-21T15:37:11.638Z,19.20
2022-10-21T15:40:13.919Z,19.10
2022-10-21T15:43:15.883Z,19.10
2022-10-21T15:46:18.097Z,19.10
2022-10-21T15:49:22.206Z,19.00
2022-10-21T15:52:24.612Z,19.00
2022-10-21T15:55:26.540Z,18.90
2022-10-21T15:58:28.326Z,18.90
2022-10-21T16:01:30.137Z,18.80
2022-10-21T16:04:32.273Z,18.80
2022-10-21T16:07:34.257Z,18.80
2022-10-21T16:10:36.974Z,18.70
2022-10-21T16:13:38.643Z,18.60
2022-10-21T16:16:49.311Z,18.70
2022-10-21T16:19:51.501Z,18.60
2022-10-21T16:22:53.657Z,18.50
2022-10-21T16:25:56.837Z,18.50
2022-10-21T16:28:59.544Z,18.50
2022-10-21T16:32:01.596Z,18.50
2022-10-21T16:35:03.524Z,18.40
2022-10-21T16:38:06.360Z,18.40
2022-10-21T16:41:13.966Z,18.30
2022-10-21T16:44:15.797Z,18.30
2022-10-21T16:47:20.640Z,18.20
2022-10-21T16:50:24.284Z,18.20
2022-10-21T16:53:29.150Z,18.10
2022-10-21T16:56:31.779Z,18.10
2022-10-21T16:59:33.635Z,18.10
2022-10-21T17:02:40.281Z,18.10
2022-10-21T17:05:42.474Z,18.00
2022-10-21T17:08:44.484Z,18.00
2022-10-21T17:11:47.183Z,18.00
2022-10-21T17:14:49.147Z,18.10
2022-10-21T17:17:51.036Z,18.00
2022-10-21T17:20:52.923Z,18.00
2022-10-21T17:23:56.372Z,18.00
2022-10-21T17:26:58.030Z,18.00
2022-10-21T17:29:59.731Z,17.90
2022-10-21T17:33:01.575Z,17.90
2022-10-21T17:36:04.043Z,17.90
2022-10-21T17:39:06.479Z,17.80
2022-10-21T17:42:09.473Z,17.80
2022-10-21T17:45:12.797Z,17.70
2022-10-21T17:48:14.534Z,17.60
2022-10-21T17:51:16.301Z,17.70
2022-10-21T17:57:38.401Z,17.60
2022-10-21T18:00:43.752Z,17.50
2022-10-21T18:04:03.138Z,17.40
2022-10-21T18:07:08.537Z,17.50
2022-10-21T18:10:11.781Z,17.50
2022-10-21T18:13:13.722Z,17.50
2022-10-21T18:16:21.662Z,17.40
2022-10-21T18:19:23.339Z,17.40
2022-10-21T18:22:25.053Z,17.40
2022-10-21T18:25:26.801Z,17.40
2022-10-21T18:28:29.623Z,17.40
2022-10-21T18:31:35.071Z,17.40
2022-10-21T18:34:36.905Z,17.40
2022-10-21T18:37:38.840Z,17.30
2022-10-21T18:40:47.061Z,17.30
2022-10-21T18:44:08.100Z,17.30
2022-10-21T18:47:11.152Z,17.30
2022-10-21T18:50:14.202Z,17.20
2022-10-21T18:53:16.035Z,17.10
2022-10-21T18:56:18.986Z,17.20
2022-10-21T18:59:21.715Z,17.20
2022-10-21T19:02:24.185Z,17.20
2022-10-21T19:05:26.399Z,17.10
2022-10-21T19:08:28.312Z,17.00
2022-10-21T19:11:30.470Z,16.90
2022-10-21T19:14:33.944Z,16.90
2022-10-21T19:17:35.665Z,16.90
2022-10-21T19:20:37.343Z,16.80
2022-10-21T19:23:39.496Z,16.80
2022-10-21T19:26:44.146Z,16.70
2022-10-21T19:29:45.875Z,16.70
2022-10-21T19:32:47.587Z,16.70
2022-10-21T19:35:49.521Z,16.60
2022-10-21T19:38:51.316Z,16.60
2022-10-21T19:41:53.269Z,16.60
2022-10-21T19:44:55.075Z,16.50
2022-10-21T19:47:56.748Z,16.40
2022-10-21T19:50:59.684Z,16.40
2022-10-21T19:54:04.945Z,16.40
2022-10-21T19:57:07.314Z,16.40
2022-10-21T20:00:10.457Z,16.30
2022-10-21T20:03:12.333Z,16.30
2022-10-21T20:06:16.801Z,16.20
2022-10-21T20:09:18.618Z,16.20
2022-10-21T20:12:20.456Z,16.20
2022-10-21T20:15:22.377Z,16.10
2022-10-21T20:18:27.264Z,16.10
2022-10-21T20:21:31.644Z,16.10
2022-10-21T20:24:33.512Z,16.10
2022-10-21T20:27:35.455Z,16.10
2022-10-21T20:30:46.277Z,16.20
2022-10-21T20:33:50.814Z,16.10
2022-10-21T20:36:52.781Z,16.10
2022-10-21T20:39:54.544Z,16.10
2022-10-21T20:42:56.411Z,16.00
2022-10-21T20:46:06.322Z,16.00
2022-10-21T20:49:09.366Z,16.00
2022-10-21T20:52:11.056Z,15.90
2022-10-21T20:55:12.981Z,16.00
2022-10-21T20:58:15.006Z,15.90
2022-10-21T21:01:20.171Z,15.90
2022-10-21T21:04:23.719Z,15.80
2022-10-21T21:07:25.455Z,15.80
2022-10-21T21:10:27.389Z,15.80
2022-10-21T21:13:29.238Z,15.70
2022-10-21T21:16:31.281Z,15.80
2022-10-21T21:19:33.420Z,15.70
2022-10-21T21:22:37.045Z,15.80
2022-10-21T21:25:39.569Z,15.80
2022-10-21T21:28:41.346Z,15.70
2022-10-21T21:31:43.958Z,15.60
2022-10-21T21:34:49.003Z,15.70
2022-10-21T21:37:50.892Z,15.70
2022-10-21T21:40:53.399Z,15.70
2022-10-21T21:43:56.989Z,15.70
2022-10-21T21:46:58.750Z,15.60
2022-10-21T21:50:00.534Z,15.60
2022-10-21T21:53:02.230Z,15.60
2022-10-21T21:56:06.226Z,15.70
2022-10-21T21:59:07.951Z,15.60
2022-10-21T22:02:09.989Z,15.70
2022-10-21T22:05:11.689Z,15.70
2022-10-21T22:08:13.683Z,15.70
2022-10-21T22:11:18.903Z,15.60
2022-10-21T22:14:20.607Z,15.60
2022-10-21T22:17:25.543Z,15.50
2022-10-21T22:20:27.609Z,15.50
2022-10-21T22:23:29.532Z,15.50
2022-10-21T22:26:31.524Z,15.50
2022-10-21T22:29:33.363Z,15.40
2022-10-21T22:32:35.701Z,15.40
2022-10-21T22:35:39.327Z,15.40
2022-10-21T22:38:41.043Z,15.30
2022-10-21T22:41:43.014Z,15.30
2022-10-21T22:44:44.821Z,15.30
2022-10-21T22:47:46.670Z,15.30
2022-10-21T22:50:49.281Z,15.30
2022-10-21T22:53:55.307Z,15.30
2022-10-21T22:56:59.286Z,15.40
2022-10-21T23:00:01.076Z,15.30
2022-10-21T23:03:06.103Z,15.30
2022-10-21T23:06:10.679Z,15.30
2022-10-21T23:09:12.575Z,15.20
2022-10-21T23:12:14.366Z,15.20
2022-10-21T23:15:28.324Z,15.20
2022-10-21T23:18:30.012Z,15.30
2022-10-21T23:21:49.631Z,15.30
2022-10-21T23:25:00.862Z,15.20
2022-10-21T23:28:03.881Z,15.10
2022-10-21T23:31:13.217Z,15.30
2022-10-21T23:34:15.147Z,15.40
2022-10-21T23:37:17.095Z,15.40
2022-10-21T23:40:19.192Z,15.50
2022-10-21T23:43:21.067Z,15.50
2022-10-21T23:46:23.306Z,15.60
2022-10-21T23:49:25.178Z,15.60
2022-10-21T23:52:27.377Z,15.60
2022-10-21T23:55:41.445Z,15.70
2022-10-21T23:58:49.130Z,15.70
